Aérodrome :
LOGIN :

S'inscrire | Disclaimer

   EN    FR    IT 

 










Légende :    VFR   VFR Marginal   IFR   IFR Intensif   IFR Très Intensif
Visi : 
Plafond : 
>= 8 km
>= 3000ft
5 à 8 km
1000 à 3000 ft
1500m à 5 km
500 à 1000 ft
800 à 1500m
200 à 500 ft
< 800m
< 200 ft
Symboles :   Orages  Brouillard  Fortes neiges  Fortes précipitations  Vent > 20 kt
SIGMETs :   Divers  Orages  Givrage  Turbulence  Onde Orograph.  Cendres Volcan.







- Altitude de l'aérodrome : 614 ft
- Code IATA : CRL


EBCI - Charleroi

METARs EXPIRÉS :
  • 241420Z 25014KT 220V280 9999 BKN035 22/12 Q1016 NOSIG
  • 241350Z 25013KT 220V280 9999 BKN035 21/12 Q1016 NOSIG
  • 241320Z 25013KT 220V280 9999 BKN035 21/12 Q1017 NOSIG
  • 241250Z 22015KT 9999 BKN032 21/11 Q1017 NOSIG
  • 241220Z 23015KT 200V270 9999 BKN032 21/12 Q1017 NOSIG
  • 241150Z 25012KT 230V290 9999 BKN030 21/12 Q1017 NOSIG

TAF TAF EBCI
Valide du 24 à 12h jusqu'au 25 à 18h UTC


241101Z 2412/2518 24011KT 9999 BKN020
BECMG 2423/2501 BKN010
TEMPO 2502/2506 4000 DZ BKN006
Pas de NOTAMs connus pour ce terrain.



MET'MAP, la Météo Aéronautique d'un coup d'oeil ! - Copyright ORBIFLY Décembre 2007 - Disclaimer

ORBIFLY MET'MAP TEAM :

Programmation & Développement : Alexandra Zaïnal
Conception & Développement : Baudouin d'Aumeries
Co-Programmation & Développement : Marc-Olivier Méhu
Soutien technique & logistique : Manuel Goepfert

Contact : metmap@orbifly.com




SOURCES & CREDITS :

   NOAA